sensor_id;sensor_type;location;lat;lon;timestamp;temperature;humidity
46490;DHT22;32204;49.160;8.580;2023-07-08T00:01:36;23.00;1.00
46490;DHT22;32204;49.160;8.580;2023-07-08T00:04:02;23.10;1.00
46490;DHT22;32204;49.160;8.580;2023-07-08T00:06:29;22.90;1.00
46490;DHT22;32204;49.160;8.580;2023-07-08T00:08:54;22.70;1.00
46490;DHT22;32204;49.160;8.580;2023-07-08T00:11:21;22.60;1.00
46490;DHT22;32204;49.160;8.580;2023-07-08T00:13:46;22.40;1.00
46490;DHT22;32204;49.160;8.580;2023-07-08T00:16:18;22.30;1.00
46490;DHT22;32204;49.160;8.580;2023-07-08T00:18:44;22.30;1.00
46490;DHT22;32204;49.160;8.580;2023-07-08T00:21:11;22.30;1.00
46490;DHT22;32204;49.160;8.580;2023-07-08T00:23:43;22.20;1.00
46490;DHT22;32204;49.160;8.580;2023-07-08T00:26:25;22.20;1.00
46490;DHT22;32204;49.160;8.580;2023-07-08T00:28:52;22.20;1.00
46490;DHT22;32204;49.160;8.580;2023-07-08T00:31:18;22.20;1.00
46490;DHT22;32204;49.160;8.580;2023-07-08T00:33:49;22.20;1.00
46490;DHT22;32204;49.160;8.580;2023-07-08T00:36:16;22.10;1.00
46490;DHT22;32204;49.160;8.580;2023-07-08T00:38:43;22.10;1.00
46490;DHT22;32204;49.160;8.580;2023-07-08T00:41:18;22.10;1.00
46490;DHT22;32204;49.160;8.580;2023-07-08T00:43:49;22.10;1.00
46490;DHT22;32204;49.160;8.580;2023-07-08T00:46:22;22.20;1.00
46490;DHT22;32204;49.160;8.580;2023-07-08T00:48:52;22.20;1.00
46490;DHT22;32204;49.160;8.580;2023-07-08T00:51:19;22.10;1.00
46490;DHT22;32204;49.160;8.580;2023-07-08T00:53:45;22.10;1.00
46490;DHT22;32204;49.160;8.580;2023-07-08T00:56:12;22.00;1.00
46490;DHT22;32204;49.160;8.580;2023-07-08T00:58:46;21.90;1.00
46490;DHT22;32204;49.160;8.580;2023-07-08T01:01:13;21.80;1.00
46490;DHT22;32204;49.160;8.580;2023-07-08T01:03:47;21.80;1.00
46490;DHT22;32204;49.160;8.580;2023-07-08T01:06:15;21.70;1.00
46490;DHT22;32204;49.160;8.580;2023-07-08T01:08:41;21.70;1.00
46490;DHT22;32204;49.160;8.580;2023-07-08T01:11:07;21.70;1.00
46490;DHT22;32204;49.160;8.580;2023-07-08T01:13:40;21.70;1.00
46490;DHT22;32204;49.160;8.580;2023-07-08T01:16:07;21.70;1.00
46490;DHT22;32204;49.160;8.580;2023-07-08T01:18:33;21.70;1.00
46490;DHT22;32204;49.160;8.580;2023-07-08T01:21:04;21.70;1.00
46490;DHT22;32204;49.160;8.580;2023-07-08T01:23:32;21.60;1.00
46490;DHT22;32204;49.160;8.580;2023-07-08T01:25:59;21.60;1.00
46490;DHT22;32204;49.160;8.580;2023-07-08T01:28:27;21.50;1.00
46490;DHT22;32204;49.160;8.580;2023-07-08T01:30:53;21.50;1.00
46490;DHT22;32204;49.160;8.580;2023-07-08T01:33:20;21.50;1.00
46490;DHT22;32204;49.160;8.580;2023-07-08T01:35:47;21.50;1.00
46490;DHT22;32204;49.160;8.580;2023-07-08T01:38:19;21.60;1.00
46490;DHT22;32204;49.160;8.580;2023-07-08T01:40:54;21.60;1.00
46490;DHT22;32204;49.160;8.580;2023-07-08T01:43:21;21.60;1.00
46490;DHT22;32204;49.160;8.580;2023-07-08T01:45:47;21.50;1.00
46490;DHT22;32204;49.160;8.580;2023-07-08T01:48:15;21.50;1.00
46490;DHT22;32204;49.160;8.580;2023-07-08T01:50:54;21.40;1.00
46490;DHT22;32204;49.160;8.580;2023-07-08T01:53:32;21.40;1.00
46490;DHT22;32204;49.160;8.580;2023-07-08T01:55:59;21.40;1.00
46490;DHT22;32204;49.160;8.580;2023-07-08T01:58:25;21.40;1.00
46490;DHT22;32204;49.160;8.580;2023-07-08T02:00:51;21.50;1.00
46490;DHT22;32204;49.160;8.580;2023-07-08T02:03:17;21.60;1.00
46490;DHT22;32204;49.160;8.580;2023-07-08T02:05:43;21.50;1.00
46490;DHT22;32204;49.160;8.580;2023-07-08T02:08:09;21.40;1.00
46490;DHT22;32204;49.160;8.580;2023-07-08T02:10:37;21.20;1.00
46490;DHT22;32204;49.160;8.580;2023-07-08T02:13:02;21.20;1.00
46490;DHT22;32204;49.160;8.580;2023-07-08T02:15:28;21.10;1.00
46490;DHT22;32204;49.160;8.580;2023-07-08T02:17:54;21.00;1.00
46490;DHT22;32204;49.160;8.580;2023-07-08T02:20:19;21.00;1.00
46490;DHT22;32204;49.160;8.580;2023-07-08T02:22:45;20.90;1.00
46490;DHT22;32204;49.160;8.580;2023-07-08T02:25:11;20.90;1.00
46490;DHT22;32204;49.160;8.580;2023-07-08T02:27:37;20.80;1.00
46490;DHT22;32204;49.160;8.580;2023-07-08T02:30:03;20.80;1.00
46490;DHT22;32204;49.160;8.580;2023-07-08T02:32:29;20.90;1.00
46490;DHT22;32204;49.160;8.580;2023-07-08T02:34:55;21.10;1.00
46490;DHT22;32204;49.160;8.580;2023-07-08T02:37:20;21.20;1.00
46490;DHT22;32204;49.160;8.580;2023-07-08T02:39:46;21.30;1.00
46490;DHT22;32204;49.160;8.580;2023-07-08T02:42:12;21.40;1.00
46490;DHT22;32204;49.160;8.580;2023-07-08T02:44:37;21.10;1.00
46490;DHT22;32204;49.160;8.580;2023-07-08T02:47:03;20.90;1.00
46490;DHT22;32204;49.160;8.580;2023-07-08T02:49:30;20.80;1.00
46490;DHT22;32204;49.160;8.580;2023-07-08T02:51:55;20.80;1.00
46490;DHT22;32204;49.160;8.580;2023-07-08T02:54:21;20.80;6.50
46490;DHT22;32204;49.160;8.580;2023-07-08T02:56:46;20.80;4.90
46490;DHT22;32204;49.160;8.580;2023-07-08T02:59:12;20.80;14.30
46490;DHT22;32204;49.160;8.580;2023-07-08T03:01:37;20.70;24.30
46490;DHT22;32204;49.160;8.580;2023-07-08T03:04:10;20.60;28.40
46490;DHT22;32204;49.160;8.580;2023-07-08T03:06:43;20.50;38.80
46490;DHT22;32204;49.160;8.580;2023-07-08T03:09:10;20.30;1.00
46490;DHT22;32204;49.160;8.580;2023-07-08T03:11:37;20.20;1.00
46490;DHT22;32204;49.160;8.580;2023-07-08T03:14:02;20.10;1.00
46490;DHT22;32204;49.160;8.580;2023-07-08T03:16:28;20.10;1.00
46490;DHT22;32204;49.160;8.580;2023-07-08T03:18:54;20.10;1.00
46490;DHT22;32204;49.160;8.580;2023-07-08T03:21:19;20.00;1.00
46490;DHT22;32204;49.160;8.580;2023-07-08T03:23:45;20.10;1.00
46490;DHT22;32204;49.160;8.580;2023-07-08T03:26:20;20.10;1.00
46490;DHT22;32204;49.160;8.580;2023-07-08T03:28:47;20.20;1.00
46490;DHT22;32204;49.160;8.580;2023-07-08T03:31:12;20.20;1.00
46490;DHT22;32204;49.160;8.580;2023-07-08T03:33:38;20.30;1.00
46490;DHT22;32204;49.160;8.580;2023-07-08T03:36:07;20.40;1.00
46490;DHT22;32204;49.160;8.580;2023-07-08T03:38:35;20.20;1.00
46490;DHT22;32204;49.160;8.580;2023-07-08T03:41:01;20.10;1.00
46490;DHT22;32204;49.160;8.580;2023-07-08T03:43:26;20.10;1.00
46490;DHT22;32204;49.160;8.580;2023-07-08T03:45:53;20.10;1.00
46490;DHT22;32204;49.160;8.580;2023-07-08T03:48:18;20.10;1.00
46490;DHT22;32204;49.160;8.580;2023-07-08T03:50:44;20.20;1.00
46490;DHT22;32204;49.160;8.580;2023-07-08T03:53:10;20.20;1.00
46490;DHT22;32204;49.160;8.580;2023-07-08T03:55:35;20.10;1.00
46490;DHT22;32204;49.160;8.580;2023-07-08T03:58:01;20.00;1.00
46490;DHT22;32204;49.160;8.580;2023-07-08T04:00:27;20.00;1.00
46490;DHT22;32204;49.160;8.580;2023-07-08T04:02:52;19.90;1.00
46490;DHT22;32204;49.160;8.580;2023-07-08T04:05:20;19.80;1.00
46490;DHT22;32204;49.160;8.580;2023-07-08T04:07:47;19.80;1.00
46490;DHT22;32204;49.160;8.580;2023-07-08T04:10:14;19.70;1.00
46490;DHT22;32204;49.160;8.580;2023-07-08T04:12:40;19.70;1.00
46490;DHT22;32204;49.160;8.580;2023-07-08T04:15:10;19.70;3.00
46490;DHT22;32204;49.160;8.580;2023-07-08T04:17:48;19.80;1.00
46490;DHT22;32204;49.160;8.580;2023-07-08T04:20:16;19.80;1.00
46490;DHT22;32204;49.160;8.580;2023-07-08T04:22:43;20.00;5.70
46490;DHT22;32204;49.160;8.580;2023-07-08T04:25:11;20.00;1.00
46490;DHT22;32204;49.160;8.580;2023-07-08T04:27:38;20.00;1.00
46490;DHT22;32204;49.160;8.580;2023-07-08T04:30:04;20.00;2.60
46490;DHT22;32204;49.160;8.580;2023-07-08T04:32:30;20.00;1.00
46490;DHT22;32204;49.160;8.580;2023-07-08T04:34:56;20.10;1.00
46490;DHT22;32204;49.160;8.580;2023-07-08T04:37:21;20.10;1.00
46490;DHT22;32204;49.160;8.580;2023-07-08T04:39:47;20.20;1.00
46490;DHT22;32204;49.160;8.580;2023-07-08T04:42:13;20.30;1.00
46490;DHT22;32204;49.160;8.580;2023-07-08T04:44:41;20.40;1.00
46490;DHT22;32204;49.160;8.580;2023-07-08T04:47:06;20.50;1.00
46490;DHT22;32204;49.160;8.580;2023-07-08T04:49:34;20.70;1.00
46490;DHT22;32204;49.160;8.580;2023-07-08T04:52:00;20.80;1.00
46490;DHT22;32204;49.160;8.580;2023-07-08T04:54:27;21.40;1.00
46490;DHT22;32204;49.160;8.580;2023-07-08T04:56:53;22.10;1.00
46490;DHT22;32204;49.160;8.580;2023-07-08T04:59:22;22.60;1.00
46490;DHT22;32204;49.160;8.580;2023-07-08T05:01:48;22.80;1.00
46490;DHT22;32204;49.160;8.580;2023-07-08T05:04:16;23.00;1.00
46490;DHT22;32204;49.160;8.580;2023-07-08T05:06:42;23.40;1.00
46490;DHT22;32204;49.160;8.580;2023-07-08T05:09:08;23.70;1.00
46490;DHT22;32204;49.160;8.580;2023-07-08T05:11:34;24.40;1.00
46490;DHT22;32204;49.160;8.580;2023-07-08T05:14:00;24.60;1.00
46490;DHT22;32204;49.160;8.580;2023-07-08T05:16:26;25.00;1.00
46490;DHT22;32204;49.160;8.580;2023-07-08T05:18:52;25.50;1.00
46490;DHT22;32204;49.160;8.580;2023-07-08T05:21:19;25.00;1.00
46490;DHT22;32204;49.160;8.580;2023-07-08T05:23:46;24.60;1.00
46490;DHT22;32204;49.160;8.580;2023-07-08T05:26:12;24.40;1.00
46490;DHT22;32204;49.160;8.580;2023-07-08T05:28:37;24.10;1.00
46490;DHT22;32204;49.160;8.580;2023-07-08T05:31:03;24.10;1.00
46490;DHT22;32204;49.160;8.580;2023-07-08T05:33:30;24.10;1.00
46490;DHT22;32204;49.160;8.580;2023-07-08T05:35:56;24.10;1.00
46490;DHT22;32204;49.160;8.580;2023-07-08T05:38:22;24.00;1.00
46490;DHT22;32204;49.160;8.580;2023-07-08T05:40:53;24.00;1.00
46490;DHT22;32204;49.160;8.580;2023-07-08T05:43:19;25.20;1.00
46490;DHT22;32204;49.160;8.580;2023-07-08T05:45:46;27.10;1.00
46490;DHT22;32204;49.160;8.580;2023-07-08T05:48:11;28.40;1.00
46490;DHT22;32204;49.160;8.580;2023-07-08T05:50:38;29.60;1.00
46490;DHT22;32204;49.160;8.580;2023-07-08T05:53:04;30.50;1.00
46490;DHT22;32204;49.160;8.580;2023-07-08T05:55:34;31.00;1.00
46490;DHT22;32204;49.160;8.580;2023-07-08T05:57:59;31.30;1.00
46490;DHT22;32204;49.160;8.580;2023-07-08T06:00:25;31.60;1.00
46490;DHT22;32204;49.160;8.580;2023-07-08T06:02:50;32.00;1.00
46490;DHT22;32204;49.160;8.580;2023-07-08T06:05:16;31.90;1.00
46490;DHT22;32204;49.160;8.580;2023-07-08T06:07:42;32.10;1.00
46490;DHT22;32204;49.160;8.580;2023-07-08T06:10:07;31.70;1.00
46490;DHT22;32204;49.160;8.580;2023-07-08T06:12:33;30.50;1.00
46490;DHT22;32204;49.160;8.580;2023-07-08T06:14:59;30.50;1.00
46490;DHT22;32204;49.160;8.580;2023-07-08T06:17:25;31.40;1.00
46490;DHT22;32204;49.160;8.580;2023-07-08T06:19:50;31.90;1.00
46490;DHT22;32204;49.160;8.580;2023-07-08T06:22:16;32.10;1.00
46490;DHT22;32204;49.160;8.580;2023-07-08T06:24:42;32.20;1.00
46490;DHT22;32204;49.160;8.580;2023-07-08T06:27:07;32.40;1.00
46490;DHT22;32204;49.160;8.580;2023-07-08T06:29:34;32.20;1.00
46490;DHT22;32204;49.160;8.580;2023-07-08T06:32:00;32.30;1.00
46490;DHT22;32204;49.160;8.580;2023-07-08T06:34:25;32.50;1.00
46490;DHT22;32204;49.160;8.580;2023-07-08T06:36:51;32.60;1.00
46490;DHT22;32204;49.160;8.580;2023-07-08T06:39:17;33.20;1.00
46490;DHT22;32204;49.160;8.580;2023-07-08T06:41:43;33.20;1.00
46490;DHT22;32204;49.160;8.580;2023-07-08T06:44:09;33.10;1.00
46490;DHT22;32204;49.160;8.580;2023-07-08T06:46:34;32.30;1.00
46490;DHT22;32204;49.160;8.580;2023-07-08T06:49:00;31.40;1.00
46490;DHT22;32204;49.160;8.580;2023-07-08T06:51:26;31.10;1.00
46490;DHT22;32204;49.160;8.580;2023-07-08T06:53:52;30.60;1.00
46490;DHT22;32204;49.160;8.580;2023-07-08T06:56:18;30.20;1.00
46490;DHT22;32204;49.160;8.580;2023-07-08T06:58:45;29.70;1.00
46490;DHT22;32204;49.160;8.580;2023-07-08T07:01:10;29.20;1.00
46490;DHT22;32204;49.160;8.580;2023-07-08T07:03:37;28.80;1.00
46490;DHT22;32204;49.160;8.580;2023-07-08T07:06:03;28.40;1.00
46490;DHT22;32204;49.160;8.580;2023-07-08T07:08:28;28.00;1.00
46490;DHT22;32204;49.160;8.580;2023-07-08T07:10:54;27.80;1.00
46490;DHT22;32204;49.160;8.580;2023-07-08T07:13:20;27.60;1.00
46490;DHT22;32204;49.160;8.580;2023-07-08T07:15:48;27.70;1.00
46490;DHT22;32204;49.160;8.580;2023-07-08T07:18:14;27.70;1.00
46490;DHT22;32204;49.160;8.580;2023-07-08T07:20:50;27.60;1.00
46490;DHT22;32204;49.160;8.580;2023-07-08T07:23:16;27.40;1.00
46490;DHT22;32204;49.160;8.580;2023-07-08T07:25:42;27.40;1.00
46490;DHT22;32204;49.160;8.580;2023-07-08T07:28:09;27.30;1.00
46490;DHT22;32204;49.160;8.580;2023-07-08T07:30:35;27.20;1.00
46490;DHT22;32204;49.160;8.580;2023-07-08T07:33:01;27.20;1.00
46490;DHT22;32204;49.160;8.580;2023-07-08T07:35:27;27.20;1.00
46490;DHT22;32204;49.160;8.580;2023-07-08T07:37:53;27.10;1.00
46490;DHT22;32204;49.160;8.580;2023-07-08T07:40:18;27.20;1.00
46490;DHT22;32204;49.160;8.580;2023-07-08T07:42:45;27.30;1.00
46490;DHT22;32204;49.160;8.580;2023-07-08T07:45:12;27.30;1.00
46490;DHT22;32204;49.160;8.580;2023-07-08T07:47:38;27.30;1.00
46490;DHT22;32204;49.160;8.580;2023-07-08T07:50:05;27.40;1.00
46490;DHT22;32204;49.160;8.580;2023-07-08T07:52:32;27.40;1.00
46490;DHT22;32204;49.160;8.580;2023-07-08T07:54:57;27.40;1.00
46490;DHT22;32204;49.160;8.580;2023-07-08T07:57:23;27.50;1.00
46490;DHT22;32204;49.160;8.580;2023-07-08T07:59:49;27.70;1.00
46490;DHT22;32204;49.160;8.580;2023-07-08T08:02:16;27.60;1.00
46490;DHT22;32204;49.160;8.580;2023-07-08T08:04:41;27.50;1.00
46490;DHT22;32204;49.160;8.580;2023-07-08T08:07:07;27.50;1.00
46490;DHT22;32204;49.160;8.580;2023-07-08T08:09:32;27.40;1.00
46490;DHT22;32204;49.160;8.580;2023-07-08T08:12:00;27.40;1.00
46490;DHT22;32204;49.160;8.580;2023-07-08T08:14:26;27.50;1.00
46490;DHT22;32204;49.160;8.580;2023-07-08T08:16:51;27.40;1.00
46490;DHT22;32204;49.160;8.580;2023-07-08T08:19:17;27.60;1.00
46490;DHT22;32204;49.160;8.580;2023-07-08T08:21:43;27.80;1.00
46490;DHT22;32204;49.160;8.580;2023-07-08T08:24:08;27.90;1.00
46490;DHT22;32204;49.160;8.580;2023-07-08T08:26:34;27.90;1.00
46490;DHT22;32204;49.160;8.580;2023-07-08T08:29:00;28.10;1.00
46490;DHT22;32204;49.160;8.580;2023-07-08T08:31:26;28.30;1.00
46490;DHT22;32204;49.160;8.580;2023-07-08T08:33:52;28.40;1.00
46490;DHT22;32204;49.160;8.580;2023-07-08T08:36:18;28.50;1.00
46490;DHT22;32204;49.160;8.580;2023-07-08T08:38:43;28.80;1.00
46490;DHT22;32204;49.160;8.580;2023-07-08T08:41:13;28.80;1.00
46490;DHT22;32204;49.160;8.580;2023-07-08T08:43:39;28.80;1.00
46490;DHT22;32204;49.160;8.580;2023-07-08T08:46:16;28.90;1.00
46490;DHT22;32204;49.160;8.580;2023-07-08T08:49:14;29.00;1.00
46490;DHT22;32204;49.160;8.580;2023-07-08T08:51:41;29.00;1.00
46490;DHT22;32204;49.160;8.580;2023-07-08T08:54:08;29.10;1.00
46490;DHT22;32204;49.160;8.580;2023-07-08T09:01:52;29.60;1.00
46490;DHT22;32204;49.160;8.580;2023-07-08T09:04:28;29.70;1.00
46490;DHT22;32204;49.160;8.580;2023-07-08T09:07:06;29.90;1.00
46490;DHT22;32204;49.160;8.580;2023-07-08T09:09:44;30.30;1.00
46490;DHT22;32204;49.160;8.580;2023-07-08T09:12:19;30.30;1.00
46490;DHT22;32204;49.160;8.580;2023-07-08T09:14:46;30.30;1.00
46490;DHT22;32204;49.160;8.580;2023-07-08T09:22:42;30.50;1.00
46490;DHT22;32204;49.160;8.580;2023-07-08T09:27:47;30.50;1.00
46490;DHT22;32204;49.160;8.580;2023-07-08T09:30:15;30.40;1.00
46490;DHT22;32204;49.160;8.580;2023-07-08T09:32:41;30.40;1.00
46490;DHT22;32204;49.160;8.580;2023-07-08T09:35:08;30.50;1.00
46490;DHT22;32204;49.160;8.580;2023-07-08T09:37:36;30.40;1.00
46490;DHT22;32204;49.160;8.580;2023-07-08T09:40:19;30.30;1.00
46490;DHT22;32204;49.160;8.580;2023-07-08T09:42:49;30.40;1.00
46490;DHT22;32204;49.160;8.580;2023-07-08T09:45:22;30.30;1.00
46490;DHT22;32204;49.160;8.580;2023-07-08T09:47:52;30.50;1.00
46490;DHT22;32204;49.160;8.580;2023-07-08T09:50:26;30.70;1.00
46490;DHT22;32204;49.160;8.580;2023-07-08T09:52:57;30.80;1.00
46490;DHT22;32204;49.160;8.580;2023-07-08T09:55:25;30.90;1.00
46490;DHT22;32204;49.160;8.580;2023-07-08T09:57:53;31.00;1.00
46490;DHT22;32204;49.160;8.580;2023-07-08T10:00:28;30.90;1.00
46490;DHT22;32204;49.160;8.580;2023-07-08T10:02:57;31.00;1.00
46490;DHT22;32204;49.160;8.580;2023-07-08T10:05:23;31.10;1.00
46490;DHT22;32204;49.160;8.580;2023-07-08T10:07:54;30.90;1.00
46490;DHT22;32204;49.160;8.580;2023-07-08T10:10:34;30.70;1.00
46490;DHT22;32204;49.160;8.580;2023-07-08T10:15:39;30.50;1.00
46490;DHT22;32204;49.160;8.580;2023-07-08T10:18:16;30.50;1.00
46490;DHT22;32204;49.160;8.580;2023-07-08T10:26:30;30.60;1.00
46490;DHT22;32204;49.160;8.580;2023-07-08T10:29:26;30.70;1.00
46490;DHT22;32204;49.160;8.580;2023-07-08T10:31:58;30.70;1.00
46490;DHT22;32204;49.160;8.580;2023-07-08T10:37:48;31.10;1.00
46490;DHT22;32204;49.160;8.580;2023-07-08T10:40:50;31.40;1.00
46490;DHT22;32204;49.160;8.580;2023-07-08T10:46:00;31.40;1.00
46490;DHT22;32204;49.160;8.580;2023-07-08T10:51:10;31.60;1.00
46490;DHT22;32204;49.160;8.580;2023-07-08T10:53:56;31.70;1.00
46490;DHT22;32204;49.160;8.580;2023-07-08T11:10:00;32.10;1.00
46490;DHT22;32204;49.160;8.580;2023-07-08T11:17:43;32.30;1.00
46490;DHT22;32204;49.160;8.580;2023-07-08T11:20:28;32.30;1.00
46490;DHT22;32204;49.160;8.580;2023-07-08T11:23:14;32.30;1.00
46490;DHT22;32204;49.160;8.580;2023-07-08T11:25:46;32.30;1.00
46490;DHT22;32204;49.160;8.580;2023-07-08T11:28:17;32.40;1.00
46490;DHT22;32204;49.160;8.580;2023-07-08T11:30:47;32.40;1.00
46490;DHT22;32204;49.160;8.580;2023-07-08T11:33:24;32.50;1.00
46490;DHT22;32204;49.160;8.580;2023-07-08T11:35:53;32.50;1.00
46490;DHT22;32204;49.160;8.580;2023-07-08T11:38:22;32.40;1.00
46490;DHT22;32204;49.160;8.580;2023-07-08T11:43:41;32.40;1.00
46490;DHT22;32204;49.160;8.580;2023-07-08T11:46:14;32.30;1.00
46490;DHT22;32204;49.160;8.580;2023-07-08T11:48:44;32.30;1.00
46490;DHT22;32204;49.160;8.580;2023-07-08T11:51:22;32.20;1.00
46490;DHT22;32204;49.160;8.580;2023-07-08T11:54:19;32.20;1.00
46490;DHT22;32204;49.160;8.580;2023-07-08T11:59:24;32.40;1.00
46490;DHT22;32204;49.160;8.580;2023-07-08T12:07:31;32.80;1.00
46490;DHT22;32204;49.160;8.580;2023-07-08T12:10:02;32.80;1.00
46490;DHT22;32204;49.160;8.580;2023-07-08T12:12:31;32.90;1.00
46490;DHT22;32204;49.160;8.580;2023-07-08T12:15:04;33.00;1.00
46490;DHT22;32204;49.160;8.580;2023-07-08T12:17:30;33.00;1.00
46490;DHT22;32204;49.160;8.580;2023-07-08T12:19:58;33.10;1.00
46490;DHT22;32204;49.160;8.580;2023-07-08T12:22:28;33.10;1.00
46490;DHT22;32204;49.160;8.580;2023-07-08T12:24:54;33.00;1.00
46490;DHT22;32204;49.160;8.580;2023-07-08T12:27:21;33.30;1.00
46490;DHT22;32204;49.160;8.580;2023-07-08T12:29:47;33.50;1.00
46490;DHT22;32204;49.160;8.580;2023-07-08T12:32:13;33.60;1.00
46490;DHT22;32204;49.160;8.580;2023-07-08T12:34:39;33.30;1.00
46490;DHT22;32204;49.160;8.580;2023-07-08T12:37:10;33.20;1.00
46490;DHT22;32204;49.160;8.580;2023-07-08T12:39:37;33.30;1.00
46490;DHT22;32204;49.160;8.580;2023-07-08T12:42:09;33.40;1.00
46490;DHT22;32204;49.160;8.580;2023-07-08T12:44:36;33.60;1.00
46490;DHT22;32204;49.160;8.580;2023-07-08T12:47:05;33.70;1.00
46490;DHT22;32204;49.160;8.580;2023-07-08T12:49:34;33.80;1.00
46490;DHT22;32204;49.160;8.580;2023-07-08T12:51:59;33.70;1.00
46490;DHT22;32204;49.160;8.580;2023-07-08T12:54:27;33.20;1.00
46490;DHT22;32204;49.160;8.580;2023-07-08T12:56:54;33.00;1.00
46490;DHT22;32204;49.160;8.580;2023-07-08T12:59:22;33.20;1.00
46490;DHT22;32204;49.160;8.580;2023-07-08T13:01:49;33.50;1.00
46490;DHT22;32204;49.160;8.580;2023-07-08T13:04:16;33.60;1.00
46490;DHT22;32204;49.160;8.580;2023-07-08T13:06:44;33.30;1.00
46490;DHT22;32204;49.160;8.580;2023-07-08T13:09:34;33.00;1.00
46490;DHT22;32204;49.160;8.580;2023-07-08T13:12:05;33.30;1.00
46490;DHT22;32204;49.160;8.580;2023-07-08T13:14:36;33.20;1.00
46490;DHT22;32204;49.160;8.580;2023-07-08T13:17:02;33.00;1.00
46490;DHT22;32204;49.160;8.580;2023-07-08T13:19:28;33.10;1.00
46490;DHT22;32204;49.160;8.580;2023-07-08T13:21:53;33.40;1.00
46490;DHT22;32204;49.160;8.580;2023-07-08T13:24:21;33.70;1.00
46490;DHT22;32204;49.160;8.580;2023-07-08T13:26:48;34.00;1.00
46490;DHT22;32204;49.160;8.580;2023-07-08T13:29:15;34.20;1.00
46490;DHT22;32204;49.160;8.580;2023-07-08T13:31:46;34.20;1.00
46490;DHT22;32204;49.160;8.580;2023-07-08T13:34:20;34.40;1.00
46490;DHT22;32204;49.160;8.580;2023-07-08T13:36:50;34.40;1.00
46490;DHT22;32204;49.160;8.580;2023-07-08T13:39:53;34.10;1.00
46490;DHT22;32204;49.160;8.580;2023-07-08T13:42:11;34.20;1.00
46490;DHT22;32204;49.160;8.580;2023-07-08T13:44:47;34.20;1.00
46490;DHT22;32204;49.160;8.580;2023-07-08T13:47:29;34.30;1.00
46490;DHT22;32204;49.160;8.580;2023-07-08T13:50:07;34.40;1.00
46490;DHT22;32204;49.160;8.580;2023-07-08T13:52:37;34.40;1.00
46490;DHT22;32204;49.160;8.580;2023-07-08T13:55:12;34.40;1.00
46490;DHT22;32204;49.160;8.580;2023-07-08T13:57:41;34.40;1.00
46490;DHT22;32204;49.160;8.580;2023-07-08T14:00:07;34.40;1.00
46490;DHT22;32204;49.160;8.580;2023-07-08T14:02:34;34.50;1.00
46490;DHT22;32204;49.160;8.580;2023-07-08T14:05:00;34.60;1.00
46490;DHT22;32204;49.160;8.580;2023-07-08T14:07:31;34.60;1.00
46490;DHT22;32204;49.160;8.580;2023-07-08T14:09:57;34.40;1.00
46490;DHT22;32204;49.160;8.580;2023-07-08T14:12:23;34.20;1.00
46490;DHT22;32204;49.160;8.580;2023-07-08T14:14:49;34.00;1.00
46490;DHT22;32204;49.160;8.580;2023-07-08T14:17:23;34.30;1.00
46490;DHT22;32204;49.160;8.580;2023-07-08T14:19:49;34.60;1.00
46490;DHT22;32204;49.160;8.580;2023-07-08T14:22:28;34.80;1.00
46490;DHT22;32204;49.160;8.580;2023-07-08T14:24:55;35.10;1.00
46490;DHT22;32204;49.160;8.580;2023-07-08T14:27:21;35.20;1.00
46490;DHT22;32204;49.160;8.580;2023-07-08T14:29:48;35.30;1.00
46490;DHT22;32204;49.160;8.580;2023-07-08T14:32:15;35.40;1.00
46490;DHT22;32204;49.160;8.580;2023-07-08T14:34:42;35.40;1.00
46490;DHT22;32204;49.160;8.580;2023-07-08T14:37:16;35.30;1.00
46490;DHT22;32204;49.160;8.580;2023-07-08T14:39:43;35.30;1.00
46490;DHT22;32204;49.160;8.580;2023-07-08T14:42:12;35.10;1.00
46490;DHT22;32204;49.160;8.580;2023-07-08T14:44:39;35.20;1.00
46490;DHT22;32204;49.160;8.580;2023-07-08T14:47:09;35.10;1.00
46490;DHT22;32204;49.160;8.580;2023-07-08T14:49:36;35.00;1.00
46490;DHT22;32204;49.160;8.580;2023-07-08T14:52:01;34.90;1.00
46490;DHT22;32204;49.160;8.580;2023-07-08T14:54:27;35.00;1.00
46490;DHT22;32204;49.160;8.580;2023-07-08T14:56:55;35.20;1.00
46490;DHT22;32204;49.160;8.580;2023-07-08T14:59:24;35.30;1.00
46490;DHT22;32204;49.160;8.580;2023-07-08T15:01:53;35.30;1.00
46490;DHT22;32204;49.160;8.580;2023-07-08T15:04:19;35.20;1.00
46490;DHT22;32204;49.160;8.580;2023-07-08T15:06:45;35.10;1.00
46490;DHT22;32204;49.160;8.580;2023-07-08T15:09:11;35.10;1.00
46490;DHT22;32204;49.160;8.580;2023-07-08T15:11:38;35.10;1.00
46490;DHT22;32204;49.160;8.580;2023-07-08T15:14:09;35.10;1.00
46490;DHT22;32204;49.160;8.580;2023-07-08T15:16:36;35.30;1.00
46490;DHT22;32204;49.160;8.580;2023-07-08T15:19:09;35.50;1.00
46490;DHT22;32204;49.160;8.580;2023-07-08T15:21:34;35.70;1.00
46490;DHT22;32204;49.160;8.580;2023-07-08T15:24:00;35.90;1.00
46490;DHT22;32204;49.160;8.580;2023-07-08T15:26:26;35.80;1.00
46490;DHT22;32204;49.160;8.580;2023-07-08T15:28:52;35.70;1.00
46490;DHT22;32204;49.160;8.580;2023-07-08T15:31:23;35.70;1.00
46490;DHT22;32204;49.160;8.580;2023-07-08T15:33:50;35.40;1.00
46490;DHT22;32204;49.160;8.580;2023-07-08T15:36:16;35.20;1.00
46490;DHT22;32204;49.160;8.580;2023-07-08T15:38:42;35.30;1.00
46490;DHT22;32204;49.160;8.580;2023-07-08T15:41:27;35.50;1.00
46490;DHT22;32204;49.160;8.580;2023-07-08T15:43:54;35.60;1.00
46490;DHT22;32204;49.160;8.580;2023-07-08T15:46:20;35.60;1.00
46490;DHT22;32204;49.160;8.580;2023-07-08T15:48:46;35.70;1.00
46490;DHT22;32204;49.160;8.580;2023-07-08T15:51:16;35.90;1.00
46490;DHT22;32204;49.160;8.580;2023-07-08T15:53:42;35.90;1.00
46490;DHT22;32204;49.160;8.580;2023-07-08T15:56:12;35.80;1.00
46490;DHT22;32204;49.160;8.580;2023-07-08T15:58:38;35.70;1.00
46490;DHT22;32204;49.160;8.580;2023-07-08T16:01:05;35.90;1.00
46490;DHT22;32204;49.160;8.580;2023-07-08T16:03:32;36.00;1.00
46490;DHT22;32204;49.160;8.580;2023-07-08T16:06:00;35.70;1.00
46490;DHT22;32204;49.160;8.580;2023-07-08T16:08:26;35.70;1.00
46490;DHT22;32204;49.160;8.580;2023-07-08T16:10:56;35.90;1.00
46490;DHT22;32204;49.160;8.580;2023-07-08T16:13:31;35.90;1.00
46490;DHT22;32204;49.160;8.580;2023-07-08T16:15:57;35.80;1.00
46490;DHT22;32204;49.160;8.580;2023-07-08T16:18:23;35.80;1.00
46490;DHT22;32204;49.160;8.580;2023-07-08T16:20:50;35.80;1.00
46490;DHT22;32204;49.160;8.580;2023-07-08T16:23:15;35.60;1.00
46490;DHT22;32204;49.160;8.580;2023-07-08T16:25:45;35.50;1.00
46490;DHT22;32204;49.160;8.580;2023-07-08T16:28:40;35.30;1.00
46490;DHT22;32204;49.160;8.580;2023-07-08T16:31:14;35.40;1.00
46490;DHT22;32204;49.160;8.580;2023-07-08T16:33:41;35.30;1.00
46490;DHT22;32204;49.160;8.580;2023-07-08T16:36:22;35.50;1.00
46490;DHT22;32204;49.160;8.580;2023-07-08T16:38:48;35.20;1.00
46490;DHT22;32204;49.160;8.580;2023-07-08T16:41:19;35.20;1.00
46490;DHT22;32204;49.160;8.580;2023-07-08T16:43:45;34.90;1.00
46490;DHT22;32204;49.160;8.580;2023-07-08T16:46:12;35.10;1.00
46490;DHT22;32204;49.160;8.580;2023-07-08T16:48:38;35.20;1.00
46490;DHT22;32204;49.160;8.580;2023-07-08T16:51:10;35.30;1.00
46490;DHT22;32204;49.160;8.580;2023-07-08T16:53:38;35.30;1.00